Impacts TAF Board INFO
FOR SITUATIONAL AWARENESS. NOT TO BE USED FOR FLIGHT PLANNING PURPOSES.
IDs:

KSFO - San Francisco Intl, CA, US

Issued at 1454 UTC 23 Nov 2017
Updated at 1641 UTC 23 Nov 2017
Potential Impact None Slight Moderate High
Time1556Z 23/17Z 23/18Z 23/19Z 23/20Z 23/21Z 23/22Z 23/23Z 24/00Z 24/01Z 24/02Z 24/03Z 24/04Z 24/05Z>>
Type OBS PRVL PRVL PRVL PRVL PRVL PRVL PRVL PRVL PRVL PRVL PRVL PRVL PRVL
VIS 10 >6 >6 >6 >6 >6 >6 >6 >6 >6 >6 >6 >6 >6
CIG 180 150 150 150 100 100 100 100 100 100 100 100 80 80
Cover BKN OVC OVC OVC OVC OVC OVC OVC OVC OVC OVC OVC BKN BKN
FltCat VFR VFR VFR VFR VFR VFR VFR VFR VFR VFR VFR VFR VFR VFR
WX -- -- -- -- VCSH VCSH VCSH VCSH VCSH VCSH VCSH VCSH -- --
WDir 110 VRB VRB VRB 300 300 300 300 300 300 300 300 290 290
WSpd 3 3 3 3 8 8 8 8 8 8 8 8 6 6
WGst -- -- -- -- -- -- -- -- -- -- -- -- -- --

Raw TAF
KSFO 231454Z 2315/2418 VRB03KT P6SM OVC150
  FM232000 30008KT P6SM VCSH SCT080 OVC100
  FM240400 29006KT P6SM SCT015 BKN080
  FM240900 29004KT P6SM BKN015


Raw METAR
KSFO 231556Z 11003KT 10SM BKN180 15/13 A3014 RMK AO2 SLP206 T01500133
KSFO 231456Z 00000KT 10SM BKN180 14/13 A3013 RMK AO2 SLP202 T01390128 53012
KSFO 231356Z 00000KT 10SM FEW180 BKN200 14/13 A3011 RMK AO2 SLP195 T01440133

METAR Board
Radar Display
Forecast Discussion

FOR SITUATIONAL AWARENESS. NOT TO BE USED FOR FLIGHT PLANNING PURPOSES.